Terminal Aerodrome Forecast
Issued by NWS

Current Version | Previous Version | Text Only | Print | Product List | Glossary On
Versions: 1 2 3 4 5 6 7 8 9 10 11 12 13 14 15 16 17 18 19
000
FTUS43 KDDC 291720
TAFGCK
TAF
KGCK 291720Z 2918/3018 06029G39KT 6SM -SHRA BR OVC006
     FM300000 36012G20KT P6SM VCSH OVC008
     FM300900 30015G23KT P6SM BKN010
     FM301600 31018KT P6SM BKN035=

USA.gov is the U.S. government's official web portal to all federal, state and local government web resources and services.